Terminal Aerodrome Forecast
Issued by NWS Wilmington, OH

Current Version | Previous Version | Graphics & Text | Print | Product List | Glossary On
Versions: 1 2 3 4 5 6 7 8 9 10 11 12 13 14 15 16 17 18 19 20 21 22 23 24
690
FTUS41 KILN 240133 AAB
TAFCMH
TAF AMD
KCMH 240133Z 2402/2424 26003KT P6SM -RA OVC008
     FM240300 26006KT P6SM VCSH SCT008 OVC022
     FM240600 31006KT P6SM BKN045
     FM241400 28011KT P6SM SCT100=

USA.gov is the U.S. government's official web portal to all federal, state and local government web resources and services.